Terminal Aerodrome Forecast
Issued by NWS

Home | Current Version | Previous Version | Text Only | Print | Product List | Glossary Off
Versions: 1 2 3 4 5 6 7 8 9 10 11 12 13 14 15 16 17 18 19 20 21 22

000
FTUS43 KICT 220908 AAB
TAFRSL
TAF AMD
KRSL 220908Z 2209/2306 04009KT 1SM -SN BR OVC012
      TEMPO 2209/2210 3SM -SN SCT012 OVC018
     FM221000 06007KT P6SM OVC007
     FM221200 07007KT 2SM -FZDZSN OVC007
     FM221700 09007KT P6SM OVC012
     FM222100 15013KT P6SM OVC015
     FM230300 12009KT 4SM BR BKN008=

USA.gov is the U.S. government's official web portal to all federal, state and local government web resources and services.